Time,TemperatureF,DewpointF,PressureIn,WindDirection,WindDirectionDegrees,WindSpeedMPH,WindSpeedGustMPH,Humidity,HourlyPrecipIn,Conditions,Clouds,dailyrainin,SoftwareType,DateUTC
2013-11-13 00:02:00,43.7,28.1,30.58,North,5,0.0,0.0,54,0.00,CLR,,0.00,WeatherDisplay:10.37,2013-11-13 06:02:00,
2013-11-13 00:07:00,43.6,28.5,30.58,North,5,0.0,0.0,55,0.00,CLR,,0.00,WeatherDisplay:10.37,2013-11-13 06:07:00,
2013-11-13 00:12:00,43.4,28.3,30.58,North,5,0.2,1.2,55,0.00,CLR,,0.00,WeatherDisplay:10.37,2013-11-13 06:12:00,
2013-11-13 00:17:00,43.2,28.1,30.58,North,5,0.1,2.3,55,0.00,CLR,,0.00,WeatherDisplay:10.37,2013-11-13 06:17:00,
2013-11-13 00:22:00,43.1,28.0,30.58,NNW,330,0.0,0.0,55,0.00,CLR,,0.00,WeatherDisplay:10.37,2013-11-13 06:22:00,
2013-11-13 00:27:00,42.9,28.3,30.58,NNW,333,0.0,0.0,56,0.00,CLR,,0.00,WeatherDisplay:10.37,2013-11-13 06:27:00,
2013-11-13 00:32:00,42.7,28.5,30.58,NNW,333,0.4,2.3,57,0.00,CLR,,0.00,WeatherDisplay:10.37,2013-11-13 06:32:00,
2013-11-13 00:37:00,42.5,27.9,30.58,NNW,333,0.0,0.0,56,0.00,CLR,,0.00,WeatherDisplay:10.37,2013-11-13 06:37:00,
2013-11-13 00:42:00,42.4,28.2,30.58,NNW,333,0.1,2.0,57,0.00,CLR,,0.00,WeatherDisplay:10.37,2013-11-13 06:42:00,
2013-11-13 00:47:00,42.2,28.0,30.59,NNW,333,0.0,0.0,57,0.00,CLR,,0.00,WeatherDisplay:10.37,2013-11-13 06:47:00,
2013-11-13 00:52:00,42.0,28.3,30.59,NNW,333,0.0,0.0,58,0.00,CLR,,0.00,WeatherDisplay:10.37,2013-11-13 06:52:00,
2013-11-13 00:57:00,41.9,28.2,30.59,NNW,333,0.6,3.5,58,0.00,CLR,,0.00,WeatherDisplay:10.37,2013-11-13 06:57:00,
2013-11-13 01:02:00,41.7,28.0,30.58,NNW,333,0.0,0.0,58,0.00,CLR,,0.00,WeatherDisplay:10.37,2013-11-13 07:02:00,
2013-11-13 01:07:00,41.5,27.8,30.58,NNW,333,0.3,2.3,58,0.00,CLR,,0.00,WeatherDisplay:10.37,2013-11-13 07:07:00,
2013-11-13 01:12:00,41.3,28.0,30.58,NNW,333,0.3,2.3,59,0.00,CLR,,0.00,WeatherDisplay:10.37,2013-11-13 07:12:00,
2013-11-13 01:17:00,41.2,27.9,30.58,NNW,333,0.0,0.0,59,0.00,CLR,,0.00,WeatherDisplay:10.37,2013-11-13 07:17:00,
2013-11-13 01:22:00,41.0,27.8,30.58,NNW,333,0.0,1.2,59,0.00,CLR,,0.00,WeatherDisplay:10.37,2013-11-13 07:22:00,
2013-11-13 01:27:00,40.9,27.7,30.58,NNW,328,1.0,3.5,59,0.00,CLR,,0.00,WeatherDisplay:10.37,2013-11-13 07:27:00,
2013-11-13 01:32:00,40.7,27.5,30.58,NNW,331,0.0,0.0,59,0.00,CLR,,0.00,WeatherDisplay:10.37,2013-11-13 07:32:00,
2013-11-13 01:37:00,40.6,27.4,30.58,NNW,331,1.0,3.5,59,0.00,CLR,,0.00,WeatherDisplay:10.37,2013-11-13 07:37:00,
2013-11-13 01:42:00,40.5,27.3,30.58,NNW,331,0.6,3.5,59,0.00,CLR,,0.00,WeatherDisplay:10.37,2013-11-13 07:42:00,
2013-11-13 01:47:00,40.4,27.2,30.58,NNW,331,0.1,2.3,59,0.00,CLR,,0.00,WeatherDisplay:10.37,2013-11-13 07:47:00,
2013-11-13 01:52:00,40.3,27.1,30.58,NNW,331,1.5,3.5,59,0.00,CLR,,0.00,WeatherDisplay:10.37,2013-11-13 07:52:00,
2013-11-13 01:57:00,40.2,27.4,30.58,NNW,340,0.9,2.3,60,0.00,CLR,,0.00,WeatherDisplay:10.37,2013-11-13 07:57:00,
2013-11-13 02:02:00,40.1,27.3,30.58,NNW,340,0.8,3.5,60,0.00,CLR,,0.00,WeatherDisplay:10.37,2013-11-13 08:02:00,
2013-11-13 02:07:00,40.0,27.2,30.58,NNW,340,0.6,2.3,60,0.00,CLR,,0.00,WeatherDisplay:10.37,2013-11-13 08:07:00,
2013-11-13 02:12:00,39.9,27.1,30.58,NW,317,1.1,3.5,60,0.00,CLR,,0.00,WeatherDisplay:10.37,2013-11-13 08:12:00,
2013-11-13 02:17:00,39.8,27.0,30.58,NNW,346,0.0,1.0,60,0.00,CLR,,0.00,WeatherDisplay:10.37,2013-11-13 08:17:00,
2013-11-13 02:22:00,39.7,27.3,30.58,NNW,346,0.0,0.0,61,0.00,CLR,,0.00,WeatherDisplay:10.37,2013-11-13 08:22:00,
2013-11-13 02:27:00,39.7,27.3,30.58,NNW,345,0.4,3.5,61,0.00,CLR,,0.00,WeatherDisplay:10.37,2013-11-13 08:27:00,
2013-11-13 02:32:00,39.6,27.2,30.57,NNW,345,0.1,1.2,61,0.00,CLR,,0.00,WeatherDisplay:10.37,2013-11-13 08:32:00,
2013-11-13 02:37:00,39.5,26.8,30.57,NNW,343,0.6,2.3,60,0.00,CLR,,0.00,WeatherDisplay:10.37,2013-11-13 08:37:00,
2013-11-13 02:42:00,39.4,26.7,30.57,North,360,0.8,3.5,60,0.00,CLR,,0.00,WeatherDisplay:10.37,2013-11-13 08:42:00,
2013-11-13 02:47:00,39.4,27.1,30.57,North,360,0.0,0.0,61,0.00,CLR,,0.00,WeatherDisplay:10.37,2013-11-13 08:47:00,
2013-11-13 02:52:00,39.3,27.0,30.58,NNW,334,0.0,3.0,61,0.00,CLR,,0.00,WeatherDisplay:10.37,2013-11-13 08:52:00,
2013-11-13 02:57:00,39.2,26.9,30.58,NNW,335,1.5,3.5,61,0.00,CLR,,0.00,WeatherDisplay:10.37,2013-11-13 08:57:00,
2013-11-13 03:02:00,39.1,26.8,30.58,NNW,331,0.6,3.5,61,0.00,CLR,,0.00,WeatherDisplay:10.37,2013-11-13 09:02:00,
2013-11-13 03:07:00,39.1,27.2,30.58,NNW,331,0.2,2.3,62,0.00,CLR,,0.00,WeatherDisplay:10.37,2013-11-13 09:07:00,
2013-11-13 03:12:00,39.0,26.7,30.58,NW,306,0.1,2.3,61,0.00,CLR,,0.00,WeatherDisplay:10.37,2013-11-13 09:12:00,
2013-11-13 03:17:00,38.9,26.6,30.58,NW,319,1.1,3.5,61,0.00,CLR,,0.00,WeatherDisplay:10.37,2013-11-13 09:17:00,
2013-11-13 03:22:00,38.8,26.9,30.58,North,360,0.4,2.3,62,0.00,CLR,,0.00,WeatherDisplay:10.37,2013-11-13 09:22:00,
2013-11-13 03:27:00,38.8,26.9,30.58,North,355,1.2,3.5,62,0.00,CLR,,0.00,WeatherDisplay:10.37,2013-11-13 09:27:00,
2013-11-13 03:32:00,38.7,26.8,30.57,NNW,333,1.0,4.6,62,0.00,CLR,,0.00,WeatherDisplay:10.37,2013-11-13 09:32:00,
2013-11-13 03:37:00,38.6,26.7,30.58,North,350,0.8,2.3,62,0.00,CLR,,0.00,WeatherDisplay:10.37,2013-11-13 09:37:00,
2013-11-13 03:42:00,38.5,26.6,30.58,North,351,0.2,2.3,62,0.00,CLR,,0.00,WeatherDisplay:10.37,2013-11-13 09:42:00,
2013-11-13 03:47:00,38.4,26.9,30.58,NNW,338,0.4,3.5,63,0.00,CLR,,0.00,WeatherDisplay:10.37,2013-11-13 09:47:00,
2013-11-13 03:52:00,38.3,26.8,30.58,NNW,336,0.0,0.0,63,0.00,CLR,,0.00,WeatherDisplay:10.37,2013-11-13 09:52:00,
2013-11-13 03:57:00,38.3,26.8,30.58,NNW,335,0.6,3.5,63,0.00,CLR,,0.00,WeatherDisplay:10.37,2013-11-13 09:57:00,
2013-11-13 04:02:00,38.2,27.1,30.58,NNW,335,0.5,2.3,64,0.00,CLR,,0.00,WeatherDisplay:10.37,2013-11-13 10:02:00,
2013-11-13 04:07:00,38.1,27.0,30.58,NNW,337,0.1,2.3,64,0.00,CLR,,0.00,WeatherDisplay:10.37,2013-11-13 10:07:00,
2013-11-13 04:12:00,38.0,26.9,30.58,NNW,338,0.0,0.0,64,0.00,CLR,,0.00,WeatherDisplay:10.37,2013-11-13 10:12:00,
2013-11-13 04:17:00,38.0,26.9,30.58,NNW,339,0.0,1.2,64,0.00,CLR,,0.00,WeatherDisplay:10.37,2013-11-13 10:17:00,
2013-11-13 04:22:00,37.8,26.7,30.58,NNW,340,0.0,1.2,64,0.00,CLR,,0.00,WeatherDisplay:10.37,2013-11-13 10:22:00,
2013-11-13 04:27:00,37.8,26.7,30.58,NNW,340,0.0,1.2,64,0.00,CLR,,0.00,WeatherDisplay:10.37,2013-11-13 10:27:00,
2013-11-13 04:32:00,37.8,27.1,30.58,NNW,340,0.0,0.0,65,0.00,CLR,,0.00,WeatherDisplay:10.37,2013-11-13 10:32:00,
2013-11-13 04:37:00,37.7,27.0,30.58,NE,55,1.3,3.5,65,0.00,CLR,,0.00,WeatherDisplay:10.37,2013-11-13 10:37:00,
2013-11-13 04:42:00,37.6,26.9,30.58,NE,49,0.0,0.0,65,0.00,CLR,,0.00,WeatherDisplay:10.37,2013-11-13 10:42:00,
2013-11-13 04:47:00,37.5,26.8,30.59,NNW,331,1.0,3.5,65,0.00,CLR,,0.00,WeatherDisplay:10.37,2013-11-13 10:47:00,
2013-11-13 04:52:00,37.4,26.7,30.59,NNW,339,0.2,1.2,65,0.00,CLR,,0.00,WeatherDisplay:10.37,2013-11-13 10:52:00,
2013-11-13 04:57:00,37.2,26.9,30.59,NNW,339,0.3,1.2,66,0.00,CLR,,0.00,WeatherDisplay:10.37,2013-11-13 10:57:00,
2013-11-13 05:02:00,37.1,26.8,30.59,NNW,340,0.0,1.0,66,0.00,CLR,,0.00,WeatherDisplay:10.37,2013-11-13 11:02:00,
2013-11-13 05:07:00,37.0,26.7,30.59,NNW,340,0.0,0.0,66,0.00,CLR,,0.00,WeatherDisplay:10.37,2013-11-13 11:07:00,
2013-11-13 05:12:00,37.0,26.7,30.59,NNW,340,1.7,3.5,66,0.00,CLR,,0.00,WeatherDisplay:10.37,2013-11-13 11:12:00,
2013-11-13 05:17:00,36.8,26.5,30.59,NNW,334,1.0,2.3,66,0.00,CLR,,0.00,WeatherDisplay:10.37,2013-11-13 11:17:00,
2013-11-13 05:22:00,36.8,26.5,30.59,NNW,336,0.3,3.5,66,0.00,CLR,,0.00,WeatherDisplay:10.37,2013-11-13 11:22:00,
2013-11-13 05:27:00,36.6,26.3,30.59,NNW,338,1.1,3.5,66,0.00,CLR,,0.00,WeatherDisplay:10.37,2013-11-13 11:27:00,
2013-11-13 05:32:00,36.5,26.6,30.59,NW,321,0.3,2.3,67,0.00,CLR,,0.00,WeatherDisplay:10.37,2013-11-13 11:32:00,
2013-11-13 05:37:00,36.5,26.6,30.59,NW,322,0.8,3.5,67,0.00,CLR,,0.00,WeatherDisplay:10.37,2013-11-13 11:37:00,
2013-11-13 05:42:00,36.4,26.8,30.59,NW,322,0.0,0.0,68,0.00,CLR,,0.00,WeatherDisplay:10.37,2013-11-13 11:42:00,
2013-11-13 05:47:00,36.3,26.7,30.59,NW,322,0.6,2.3,68,0.00,CLR,,0.00,WeatherDisplay:10.37,2013-11-13 11:47:00,
2013-11-13 05:52:00,36.2,26.6,30.59,NNW,329,1.2,3.5,68,0.00,CLR,,0.00,WeatherDisplay:10.37,2013-11-13 11:52:00,
2013-11-13 05:57:00,36.1,26.9,30.59,NNW,329,0.4,1.2,69,0.00,CLR,,0.00,WeatherDisplay:10.37,2013-11-13 11:57:00,
2013-11-13 06:02:00,35.9,26.4,30.59,NNW,341,0.1,1.2,68,0.00,CLR,,0.00,WeatherDisplay:10.37,2013-11-13 12:02:00,
2013-11-13 06:07:00,35.9,26.7,30.59,NNW,333,1.6,3.0,69,0.00,CLR,,0.00,WeatherDisplay:10.37,2013-11-13 12:07:00,
2013-11-13 06:12:00,35.7,26.5,30.59,NNW,336,0.0,2.3,69,0.00,CLR,,0.00,WeatherDisplay:10.37,2013-11-13 12:12:00,
2013-11-13 06:17:00,35.6,26.4,30.59,NNW,336,0.3,2.3,69,0.00,CLR,,0.00,WeatherDisplay:10.37,2013-11-13 12:17:00,
2013-11-13 06:22:00,35.6,26.8,30.59,NNW,336,0.2,2.3,70,0.00,CLR,,0.00,WeatherDisplay:10.37,2013-11-13 12:22:00,
2013-11-13 06:27:00,35.5,26.7,30.59,NNW,328,0.8,3.5,70,0.00,CLR,,0.00,WeatherDisplay:10.37,2013-11-13 12:27:00,
2013-11-13 06:32:00,35.3,26.5,30.59,NNW,327,0.5,3.5,70,0.00,CLR,,0.00,WeatherDisplay:10.37,2013-11-13 12:32:00,
2013-11-13 06:37:00,35.2,26.4,30.58,NNW,327,1.0,2.3,70,0.00,CLR,,0.00,WeatherDisplay:10.37,2013-11-13 12:37:00,
2013-11-13 06:42:00,35.2,26.7,30.58,NNW,332,0.2,1.2,71,0.00,CLR,,0.00,WeatherDisplay:10.37,2013-11-13 12:42:00,
2013-11-13 06:47:00,35.0,26.2,30.58,NW,317,0.0,0.0,70,0.00,CLR,,0.00,WeatherDisplay:10.37,2013-11-13 12:47:00,
2013-11-13 06:52:00,35.0,26.5,30.58,NW,318,1.3,3.5,71,0.00,CLR,,0.00,WeatherDisplay:10.37,2013-11-13 12:52:00,
2013-11-13 06:57:00,34.9,26.4,30.58,NW,318,0.0,0.0,71,0.00,CLR,,0.00,WeatherDisplay:10.37,2013-11-13 12:57:00,
2013-11-13 07:02:00,34.8,26.4,30.59,NW,318,0.0,0.0,71,0.00,CLR,,0.00,WeatherDisplay:10.37,2013-11-13 13:02:00,
2013-11-13 07:07:00,34.8,26.4,30.59,NNW,333,0.0,1.2,71,0.00,CLR,,0.00,WeatherDisplay:10.37,2013-11-13 13:07:00,
2013-11-13 07:12:00,34.7,27.9,30.59,NNW,333,0.2,2.3,76,0.00,CLR,,0.00,WeatherDisplay:10.37,2013-11-13 13:12:00,
2013-11-13 07:17:00,34.6,26.2,30.59,NNW,333,0.2,2.3,71,0.00,CLR,,0.00,WeatherDisplay:10.37,2013-11-13 13:17:00,
2013-11-13 07:22:00,34.6,26.5,30.59,NNW,333,0.6,2.3,72,0.00,CLR,,0.00,WeatherDisplay:10.37,2013-11-13 13:22:00,
2013-11-13 07:27:00,34.5,26.4,30.59,NNW,329,1.1,3.5,72,0.00,CLR,,0.00,WeatherDisplay:10.37,2013-11-13 13:27:00,
2013-11-13 07:32:00,34.5,26.7,30.59,NNW,331,0.4,2.0,73,0.00,CLR,,0.00,WeatherDisplay:10.37,2013-11-13 13:32:00,
2013-11-13 07:37:00,34.6,26.5,30.59,NNW,333,0.3,3.5,72,0.00,CLR,,0.00,WeatherDisplay:10.37,2013-11-13 13:37:00,
2013-11-13 07:42:00,34.6,26.8,30.59,NNW,334,1.2,3.5,73,0.00,CLR,,0.00,WeatherDisplay:10.37,2013-11-13 13:42:00,
2013-11-13 07:47:00,34.7,26.9,30.60,NNW,336,0.0,2.0,73,0.00,CLR,,0.00,WeatherDisplay:10.37,2013-11-13 13:47:00,
2013-11-13 07:52:00,34.9,27.1,30.60,NNW,342,0.2,2.3,73,0.00,CLR,,0.00,WeatherDisplay:10.37,2013-11-13 13:52:00,
2013-11-13 07:57:00,35.2,27.1,30.60,NNW,327,1.4,3.5,72,0.00,CLR,,0.00,WeatherDisplay:10.37,2013-11-13 13:57:00,
2013-11-13 08:02:00,35.4,27.3,30.60,NNW,327,0.1,0.0,72,0.00,CLR,,0.00,WeatherDisplay:10.37,2013-11-13 14:02:00,
2013-11-13 08:07:00,35.6,27.5,30.60,North,11,0.6,2.0,72,0.00,CLR,,0.00,WeatherDisplay:10.37,2013-11-13 14:07:00,
2013-11-13 08:12:00,35.9,27.7,30.60,North,360,0.2,2.3,72,0.00,CLR,,0.00,WeatherDisplay:10.37,2013-11-13 14:12:00,
2013-11-13 08:17:00,36.2,27.7,30.61,North,5,0.0,0.0,71,0.00,CLR,,0.00,WeatherDisplay:10.37,2013-11-13 14:17:00,
2013-11-13 08:22:00,36.5,28.0,30.61,NW,321,0.1,2.3,71,0.00,CLR,,0.00,WeatherDisplay:10.37,2013-11-13 14:22:00,
2013-11-13 08:27:00,36.8,28.3,30.61,NE,46,0.4,3.5,71,0.00,CLR,,0.00,WeatherDisplay:10.37,2013-11-13 14:27:00,
2013-11-13 08:32:00,37.1,28.2,30.61,NE,49,0.1,1.2,70,0.00,CLR,,0.00,WeatherDisplay:10.37,2013-11-13 14:32:00,
2013-11-13 08:37:00,37.5,28.6,30.61,NE,51,0.9,3.5,70,0.00,CLR,,0.00,WeatherDisplay:10.37,2013-11-13 14:37:00,
2013-11-13 08:42:00,37.9,28.6,30.61,ESE,115,1.8,4.6,69,0.00,CLR,,0.00,WeatherDisplay:10.37,2013-11-13 14:42:00,
2013-11-13 08:47:00,38.2,28.6,30.61,NE,43,0.6,3.5,68,0.00,CLR,,0.00,WeatherDisplay:10.37,2013-11-13 14:47:00,
2013-11-13 08:52:00,38.5,28.5,30.61,NE,56,0.8,3.5,67,0.00,CLR,,0.00,WeatherDisplay:10.37,2013-11-13 14:52:00,
2013-11-13 08:57:00,38.9,28.9,30.61,ENE,73,0.9,3.5,67,0.00,CLR,,0.00,WeatherDisplay:10.37,2013-11-13 14:57:00,
2013-11-13 09:02:00,39.1,28.3,30.62,NNE,19,0.9,3.5,65,0.00,CLR,,0.00,WeatherDisplay:10.37,2013-11-13 15:02:00,
2013-11-13 09:07:00,39.5,28.7,30.61,ENE,74,0.5,3.5,65,0.00,CLR,,0.00,WeatherDisplay:10.37,2013-11-13 15:07:00,
2013-11-13 09:12:00,39.8,28.6,30.61,North,355,0.3,3.5,64,0.00,CLR,,0.00,WeatherDisplay:10.37,2013-11-13 15:12:00,
2013-11-13 09:17:00,40.1,28.5,30.62,ENE,74,0.1,2.3,63,0.00,CLR,,0.00,WeatherDisplay:10.37,2013-11-13 15:17:00,
2013-11-13 09:22:00,40.3,28.7,30.62,NNE,30,1.4,4.6,63,0.00,CLR,,0.00,WeatherDisplay:10.37,2013-11-13 15:22:00,
2013-11-13 09:27:00,40.5,28.5,30.61,NNW,346,0.9,3.5,62,0.00,CLR,,0.00,WeatherDisplay:10.37,2013-11-13 15:27:00,
2013-11-13 09:32:00,40.8,28.4,30.61,NNE,22,0.3,2.3,61,0.00,CLR,,0.00,WeatherDisplay:10.37,2013-11-13 15:32:00,
2013-11-13 09:37:00,41.0,29.7,30.61,ENE,76,0.0,3.5,64,0.00,CLR,,0.00,WeatherDisplay:10.37,2013-11-13 15:37:00,
2013-11-13 09:42:00,41.3,28.4,30.61,NNW,348,0.0,0.0,60,0.00,CLR,,0.00,WeatherDisplay:10.37,2013-11-13 15:42:00,
2013-11-13 09:47:00,41.5,27.8,30.61,NNW,348,1.5,3.5,58,0.00,CLR,,0.00,WeatherDisplay:10.37,2013-11-13 15:47:00,
2013-11-13 09:52:00,41.7,28.4,30.61,ENE,69,0.2,2.3,59,0.00,CLR,,0.00,WeatherDisplay:10.37,2013-11-13 15:52:00,
2013-11-13 09:57:00,42.0,28.7,30.61,ENE,71,0.6,2.3,59,0.00,CLR,,0.00,WeatherDisplay:10.37,2013-11-13 15:57:00,
2013-11-13 10:02:00,42.3,28.6,30.61,NNW,342,0.0,1.2,58,0.00,CLR,,0.00,WeatherDisplay:10.37,2013-11-13 16:02:00,
2013-11-13 10:07:00,42.7,28.9,30.61,NE,42,0.4,2.3,58,0.00,CLR,,0.00,WeatherDisplay:10.37,2013-11-13 16:07:00,
2013-11-13 10:12:00,43.1,29.3,30.61,ENE,73,0.0,0.0,58,0.00,CLR,,0.00,WeatherDisplay:10.37,2013-11-13 16:12:00,
2013-11-13 10:17:00,43.3,28.2,30.61,NNW,338,2.1,3.5,55,0.00,CLR,,0.00,WeatherDisplay:10.37,2013-11-13 16:17:00,
2013-11-13 10:22:00,43.5,28.4,30.60,North,360,0.0,1.2,55,0.00,CLR,,0.00,WeatherDisplay:10.37,2013-11-13 16:22:00,
2013-11-13 10:27:00,43.7,29.0,30.60,ENE,76,0.1,2.0,56,0.00,CLR,,0.00,WeatherDisplay:10.37,2013-11-13 16:27:00,
2013-11-13 10:32:00,43.9,27.9,30.60,North,355,0.9,3.5,53,0.00,CLR,,0.00,WeatherDisplay:10.37,2013-11-13 16:32:00,
2013-11-13 10:37:00,44.1,28.0,30.60,NNE,23,0.1,3.5,53,0.00,CLR,,0.00,WeatherDisplay:10.37,2013-11-13 16:37:00,
2013-11-13 10:42:00,44.3,28.7,30.60,NE,49,0.0,1.2,54,0.00,CLR,,0.00,WeatherDisplay:10.37,2013-11-13 16:42:00,
2013-11-13 10:47:00,44.5,28.9,30.60,NE,44,0.0,1.2,54,0.00,CLR,,0.00,WeatherDisplay:10.37,2013-11-13 16:47:00,
2013-11-13 10:52:00,44.7,28.1,30.60,NE,53,0.0,1.2,52,0.00,CLR,,0.00,WeatherDisplay:10.37,2013-11-13 16:52:00,
2013-11-13 10:57:00,45.0,28.9,30.59,ENE,66,0.1,3.5,53,0.00,CLR,,0.00,WeatherDisplay:10.37,2013-11-13 16:57:00,
2013-11-13 11:02:00,45.2,28.1,30.59,ENE,71,0.0,1.2,51,0.00,CLR,,0.00,WeatherDisplay:10.37,2013-11-13 17:02:00,
2013-11-13 11:07:00,45.4,30.2,30.59,NE,38,0.2,1.2,55,0.00,CLR,,0.00,WeatherDisplay:10.37,2013-11-13 17:07:00,
2013-11-13 11:12:00,45.6,30.3,30.58,ENE,71,1.4,3.5,55,0.00,CLR,,0.00,WeatherDisplay:10.37,2013-11-13 17:12:00,
2013-11-13 11:17:00,45.9,29.2,30.58,NW,319,1.6,3.5,52,0.00,CLR,,0.00,WeatherDisplay:10.37,2013-11-13 17:17:00,
2013-11-13 11:22:00,46.2,29.5,30.58,NW,306,0.9,4.6,52,0.00,CLR,,0.00,WeatherDisplay:10.37,2013-11-13 17:22:00,
2013-11-13 11:27:00,46.6,29.9,30.57,NNW,346,0.4,4.6,52,0.00,CLR,,0.00,WeatherDisplay:10.37,2013-11-13 17:27:00,
2013-11-13 11:32:00,46.9,30.6,30.57,NE,44,0.8,3.5,53,0.00,CLR,,0.00,WeatherDisplay:10.37,2013-11-13 17:32:00,
2013-11-13 11:37:00,47.1,30.4,30.57,North,360,0.0,1.2,52,0.00,CLR,,0.00,WeatherDisplay:10.37,2013-11-13 17:37:00,
2013-11-13 11:42:00,47.4,29.7,30.56,NNW,346,2.0,3.5,50,0.00,CLR,,0.00,WeatherDisplay:10.37,2013-11-13 17:42:00,
2013-11-13 11:47:00,47.7,31.4,30.56,NNW,346,0.0,1.0,53,0.00,CLR,,0.00,WeatherDisplay:10.37,2013-11-13 17:47:00,
2013-11-13 11:52:00,48.1,31.3,30.56,NNW,340,0.5,2.3,52,0.00,CLR,,0.00,WeatherDisplay:10.37,2013-11-13 17:52:00,
2013-11-13 11:57:00,48.4,30.6,30.55,NNW,331,0.7,4.0,50,0.00,CLR,,0.00,WeatherDisplay:10.37,2013-11-13 17:57:00,
2013-11-13 12:02:00,48.7,29.9,30.55,NNW,342,0.4,2.3,48,0.00,CLR,,0.00,WeatherDisplay:10.37,2013-11-13 18:02:00,
2013-11-13 12:07:00,49.1,31.2,30.55,NNW,348,1.5,3.5,50,0.00,CLR,,0.00,WeatherDisplay:10.37,2013-11-13 18:07:00,
2013-11-13 12:12:00,49.7,31.3,30.54,NNW,348,0.8,3.5,49,0.00,CLR,,0.00,WeatherDisplay:10.37,2013-11-13 18:12:00,
2013-11-13 12:17:00,50.3,31.3,30.54,NNW,348,0.5,1.2,48,0.00,CLR,,0.00,WeatherDisplay:10.37,2013-11-13 18:17:00,
2013-11-13 12:22:00,50.9,31.4,30.53,ENE,67,0.3,2.3,47,0.00,CLR,,0.00,WeatherDisplay:10.37,2013-11-13 18:22:00,
2013-11-13 12:27:00,51.4,30.2,30.53,NE,52,0.5,2.3,44,0.00,CLR,,0.00,WeatherDisplay:10.37,2013-11-13 18:27:00,
2013-11-13 12:32:00,51.9,30.6,30.53,East,79,0.2,3.5,44,0.00,CLR,,0.00,WeatherDisplay:10.37,2013-11-13 18:32:00,
2013-11-13 12:37:00,52.6,31.3,30.52,North,360,1.0,3.5,44,0.00,CLR,,0.00,WeatherDisplay:10.37,2013-11-13 18:37:00,
2013-11-13 12:42:00,53.2,31.3,30.51,NNE,15,0.0,0.0,43,0.00,CLR,,0.00,WeatherDisplay:10.37,2013-11-13 18:42:00,
2013-11-13 12:47:00,53.9,31.9,30.51,NNW,330,1.9,3.5,43,0.00,CLR,,0.00,WeatherDisplay:10.37,2013-11-13 18:47:00,
2013-11-13 12:52:00,54.2,31.0,30.50,NNE,21,0.0,0.0,41,0.00,CLR,,0.00,WeatherDisplay:10.37,2013-11-13 18:52:00,
2013-11-13 12:57:00,54.8,32.1,30.50,NE,55,0.5,2.3,42,0.00,CLR,,0.00,WeatherDisplay:10.37,2013-11-13 18:57:00,
2013-11-13 13:02:00,55.1,30.6,30.50,ENE,62,0.0,2.3,39,0.00,CLR,,0.00,WeatherDisplay:10.37,2013-11-13 19:02:00,
2013-11-13 13:07:00,55.5,30.3,30.49,NW,321,0.2,3.5,38,0.00,CLR,,0.00,WeatherDisplay:10.37,2013-11-13 19:07:00,
2013-11-13 13:12:00,55.7,31.1,30.49,ENE,57,0.6,2.3,39,0.00,CLR,,0.00,WeatherDisplay:10.37,2013-11-13 19:12:00,
2013-11-13 13:17:00,55.9,31.3,30.49,ENE,62,0.1,1.2,39,0.00,CLR,,0.00,WeatherDisplay:10.37,2013-11-13 19:17:00,
2013-11-13 13:22:00,55.9,31.9,30.48,NE,40,0.0,1.2,40,0.00,CLR,,0.00,WeatherDisplay:10.37,2013-11-13 19:22:00,
2013-11-13 13:27:00,56.0,32.0,30.48,North,5,0.5,2.3,40,0.00,CLR,,0.00,WeatherDisplay:10.37,2013-11-13 19:27:00,
2013-11-13 13:32:00,56.1,30.8,30.48,East,101,0.5,3.5,38,0.00,CLR,,0.00,WeatherDisplay:10.37,2013-11-13 19:32:00,
2013-11-13 13:37:00,56.1,31.5,30.48,NE,55,0.2,2.3,39,0.00,CLR,,0.00,WeatherDisplay:10.37,2013-11-13 19:37:00,
2013-11-13 13:42:00,56.0,30.1,30.47,NE,50,0.5,3.5,37,0.00,CLR,,0.00,WeatherDisplay:10.37,2013-11-13 19:42:00,
2013-11-13 13:47:00,56.1,29.5,30.47,NE,52,0.0,0.0,36,0.00,CLR,,0.00,WeatherDisplay:10.37,2013-11-13 19:47:00,
2013-11-13 13:52:00,56.3,29.7,30.47,NE,41,0.0,1.2,36,0.00,CLR,,0.00,WeatherDisplay:10.37,2013-11-13 19:52:00,
2013-11-13 13:57:00,56.3,31.0,30.46,NE,48,1.0,3.5,38,0.00,CLR,,0.00,WeatherDisplay:10.37,2013-11-13 19:57:00,
2013-11-13 14:02:00,56.2,30.2,30.46,North,11,0.0,0.0,37,0.00,CLR,,0.00,WeatherDisplay:10.37,2013-11-13 20:02:00,
2013-11-13 14:07:00,56.3,30.3,30.45,NNE,26,0.0,0.0,37,0.00,CLR,,0.00,WeatherDisplay:10.37,2013-11-13 20:07:00,
2013-11-13 14:12:00,56.2,30.2,30.45,NNW,332,0.0,1.0,37,0.00,CLR,,0.00,WeatherDisplay:10.37,2013-11-13 20:12:00,
2013-11-13 14:17:00,56.3,30.3,30.45,NNE,22,0.1,1.2,37,0.00,CLR,,0.00,WeatherDisplay:10.37,2013-11-13 20:17:00,
2013-11-13 14:22:00,56.2,30.2,30.45,North,351,0.6,2.3,37,0.00,CLR,,0.00,WeatherDisplay:10.37,2013-11-13 20:22:00,
2013-11-13 14:27:00,56.2,28.9,30.45,NE,36,0.2,2.3,35,0.00,CLR,,0.00,WeatherDisplay:10.37,2013-11-13 20:27:00,
2013-11-13 14:32:00,56.4,29.7,30.44,NE,36,0.0,1.2,36,0.00,CLR,,0.00,WeatherDisplay:10.37,2013-11-13 20:32:00,
2013-11-13 14:37:00,56.6,29.2,30.44,NE,42,0.0,1.2,35,0.00,CLR,,0.00,WeatherDisplay:10.37,2013-11-13 20:37:00,
2013-11-13 14:42:00,56.8,30.8,30.43,NNW,346,0.2,2.0,37,0.00,CLR,,0.00,WeatherDisplay:10.37,2013-11-13 20:42:00,
2013-11-13 14:47:00,57.0,31.0,30.43,NNW,346,0.4,3.5,37,0.00,CLR,,0.00,WeatherDisplay:10.37,2013-11-13 20:47:00,
2013-11-13 14:52:00,56.9,30.2,30.43,NNW,330,0.3,2.0,36,0.00,CLR,,0.00,WeatherDisplay:10.37,2013-11-13 20:52:00,
2013-11-13 14:57:00,56.7,27.9,30.43,NW,325,0.3,2.3,33,0.00,CLR,,0.00,WeatherDisplay:10.37,2013-11-13 20:57:00,
2013-11-13 15:02:00,56.5,29.8,30.43,ENE,67,0.0,0.0,36,0.00,CLR,,0.00,WeatherDisplay:10.37,2013-11-13 21:02:00,
2013-11-13 15:07:00,56.3,29.0,30.43,ENE,67,0.2,0.0,35,0.00,CLR,,0.00,WeatherDisplay:10.37,2013-11-13 21:07:00,
2013-11-13 15:12:00,55.9,27.9,30.43,ENE,68,0.1,1.0,34,0.00,CLR,,0.00,WeatherDisplay:10.37,2013-11-13 21:12:00,
2013-11-13 15:17:00,55.7,29.8,30.43,ENE,68,0.0,0.0,37,0.00,CLR,,0.00,WeatherDisplay:10.37,2013-11-13 21:17:00,
2013-11-13 15:22:00,55.5,29.6,30.43,NNW,346,0.1,0.0,37,0.00,CLR,,0.00,WeatherDisplay:10.37,2013-11-13 21:22:00,
2013-11-13 15:27:00,55.2,28.7,30.43,NNW,345,0.0,0.0,36,0.00,CLR,,0.00,WeatherDisplay:10.37,2013-11-13 21:27:00,
2013-11-13 15:32:00,55.1,29.9,30.43,North,360,0.0,1.2,38,0.00,CLR,,0.00,WeatherDisplay:10.37,2013-11-13 21:32:00,
2013-11-13 15:37:00,55.0,29.8,30.43,North,360,0.0,0.0,38,0.00,CLR,,0.00,WeatherDisplay:10.37,2013-11-13 21:37:00,
2013-11-13 15:42:00,54.9,31.6,30.43,North,360,0.0,0.0,41,0.00,CLR,,0.00,WeatherDisplay:10.37,2013-11-13 21:42:00,
2013-11-13 15:47:00,54.8,30.3,30.43,North,360,0.0,0.0,39,0.00,CLR,,0.00,WeatherDisplay:10.37,2013-11-13 21:47:00,
2013-11-13 15:52:00,54.6,30.1,30.42,North,360,0.0,0.0,39,0.00,CLR,,0.00,WeatherDisplay:10.37,2013-11-13 21:52:00,
2013-11-13 15:57:00,54.5,30.0,30.42,North,5,0.0,0.0,39,0.00,CLR,,0.00,WeatherDisplay:10.37,2013-11-13 21:57:00,
2013-11-13 16:02:00,54.3,29.8,30.42,North,5,0.0,0.0,39,0.00,CLR,,0.00,WeatherDisplay:10.37,2013-11-13 22:02:00,
2013-11-13 16:08:00,54.2,29.8,30.42,East,84,0.1,1.2,39,0.00,CLR,,0.00,WeatherDisplay:10.37,2013-11-13 22:08:00,
2013-11-13 16:13:00,54.1,30.3,30.42,NE,56,0.0,0.0,40,0.00,CLR,,0.00,WeatherDisplay:10.37,2013-11-13 22:13:00,
2013-11-13 16:18:00,54.0,30.2,30.42,NNE,29,0.0,0.0,40,0.00,CLR,,0.00,WeatherDisplay:10.37,2013-11-13 22:18:00,
2013-11-13 16:23:00,53.9,30.1,30.42,NNE,29,0.0,0.0,40,0.00,CLR,,0.00,WeatherDisplay:10.37,2013-11-13 22:23:00,
2013-11-13 16:28:00,53.7,29.3,30.42,NNE,29,0.0,0.0,39,0.00,CLR,,0.00,WeatherDisplay:10.37,2013-11-13 22:28:00,
2013-11-13 16:33:00,53.6,29.8,30.42,NNE,30,0.0,0.0,40,0.00,CLR,,0.00,WeatherDisplay:10.37,2013-11-13 22:33:00,
2013-11-13 16:38:00,53.4,29.7,30.42,NNE,29,0.0,0.0,40,0.00,CLR,,0.00,WeatherDisplay:10.37,2013-11-13 22:38:00,
2013-11-13 16:43:00,53.3,30.8,30.41,NNE,29,0.0,0.0,42,0.00,CLR,,0.00,WeatherDisplay:10.37,2013-11-13 22:43:00,
2013-11-13 16:48:00,53.1,29.4,30.42,NNE,30,0.0,0.0,40,0.00,CLR,,0.00,WeatherDisplay:10.37,2013-11-13 22:48:00,
2013-11-13 16:53:00,52.9,29.2,30.42,NNE,30,0.0,0.0,40,0.00,CLR,,0.00,WeatherDisplay:10.37,2013-11-13 22:53:00,
2013-11-13 16:58:00,52.7,29.6,30.42,NNE,29,0.0,0.0,41,0.00,CLR,,0.00,WeatherDisplay:10.37,2013-11-13 22:58:00,
2013-11-13 17:03:00,52.5,29.5,30.42,NNE,30,0.0,0.0,41,0.00,CLR,,0.00,WeatherDisplay:10.37,2013-11-13 23:03:00,
2013-11-13 17:08:00,52.3,29.9,30.42,NNE,29,0.0,0.0,42,0.00,CLR,,0.00,WeatherDisplay:10.37,2013-11-13 23:08:00,
2013-11-13 17:13:00,52.0,30.2,30.42,NNE,29,0.0,0.0,43,0.00,CLR,,0.00,WeatherDisplay:10.37,2013-11-13 23:13:00,
2013-11-13 17:18:00,51.8,30.0,30.41,NNE,29,0.0,1.2,43,0.00,CLR,,0.00,WeatherDisplay:10.37,2013-11-13 23:18:00,
2013-11-13 17:23:00,51.6,30.9,30.41,NNE,29,0.0,0.0,45,0.00,CLR,,0.00,WeatherDisplay:10.37,2013-11-13 23:23:00,
2013-11-13 17:28:00,51.3,31.2,30.41,NNE,29,0.0,0.0,46,0.00,CLR,,0.00,WeatherDisplay:10.37,2013-11-13 23:28:00,
2013-11-13 17:33:00,50.9,30.8,30.41,NNE,29,0.0,0.0,46,0.00,CLR,,0.00,WeatherDisplay:10.37,2013-11-13 23:33:00,
2013-11-13 17:38:00,50.5,31.0,30.41,NNE,29,0.0,0.0,47,0.00,CLR,,0.00,WeatherDisplay:10.37,2013-11-13 23:38:00,
2013-11-13 17:43:00,50.2,30.7,30.40,NNE,29,0.0,0.0,47,0.00,CLR,,0.00,WeatherDisplay:10.37,2013-11-13 23:43:00,
2013-11-13 17:48:00,49.8,30.4,30.40,NNE,29,0.0,0.0,47,0.00,CLR,,0.00,WeatherDisplay:10.37,2013-11-13 23:48:00,
2013-11-13 17:53:00,49.4,31.0,30.41,NNE,29,0.0,0.0,49,0.00,CLR,,0.00,WeatherDisplay:10.37,2013-11-13 23:53:00,
2013-11-13 17:58:00,48.8,30.5,30.41,NNE,29,0.0,0.0,49,0.00,CLR,,0.00,WeatherDisplay:10.37,2013-11-13 23:58:00,
2013-11-13 18:03:00,48.4,30.1,30.41,NNE,29,0.0,0.0,49,0.00,CLR,,0.00,WeatherDisplay:10.37,2013-11-14 00:03:00,
2013-11-13 18:08:00,47.7,30.0,30.40,NNE,29,0.0,0.0,50,0.00,CLR,,0.00,WeatherDisplay:10.37,2013-11-14 00:08:00,
2013-11-13 18:13:00,47.1,30.4,30.41,NNE,29,0.0,0.0,52,0.00,CLR,,0.00,WeatherDisplay:10.37,2013-11-14 00:13:00,
2013-11-13 18:18:00,46.5,30.3,30.41,NNE,29,0.0,0.0,53,0.00,CLR,,0.00,WeatherDisplay:10.37,2013-11-14 00:18:00,
2013-11-13 18:23:00,46.1,30.8,30.41,NNE,29,0.0,0.0,55,0.00,CLR,,0.00,WeatherDisplay:10.37,2013-11-14 00:23:00,
2013-11-13 18:28:00,45.6,30.8,30.40,NNE,29,0.0,0.0,56,0.00,CLR,,0.00,WeatherDisplay:10.37,2013-11-14 00:28:00,
2013-11-13 18:33:00,45.0,30.7,30.41,NNE,29,0.0,0.0,57,0.00,CLR,,0.00,WeatherDisplay:10.37,2013-11-14 00:33:00,
2013-11-13 18:38:00,44.8,30.9,30.41,NNE,29,0.0,0.0,58,0.00,CLR,,0.00,WeatherDisplay:10.37,2013-11-14 00:38:00,
2013-11-13 18:43:00,44.4,30.5,30.41,NNE,29,0.0,0.0,58,0.00,CLR,,0.00,WeatherDisplay:10.37,2013-11-14 00:43:00,
2013-11-13 18:48:00,44.1,30.7,30.41,NNE,29,0.0,0.0,59,0.00,CLR,,0.00,WeatherDisplay:10.37,2013-11-14 00:48:00,
2013-11-13 18:53:00,43.7,31.1,30.41,NNE,29,0.0,0.0,61,0.00,CLR,,0.00,WeatherDisplay:10.37,2013-11-14 00:53:00,
2013-11-13 18:58:00,43.3,30.7,30.41,NNE,29,0.0,0.0,61,0.00,CLR,,0.00,WeatherDisplay:10.37,2013-11-14 00:58:00,
2013-11-13 19:03:00,42.9,30.8,30.41,NNE,29,0.0,0.0,62,0.00,CLR,,0.00,WeatherDisplay:10.37,2013-11-14 01:03:00,
2013-11-13 19:08:00,42.4,30.7,30.41,NNE,29,0.0,0.0,63,0.00,CLR,,0.00,WeatherDisplay:10.37,2013-11-14 01:08:00,
2013-11-13 19:13:00,42.0,30.7,30.41,NNE,30,0.0,0.0,64,0.00,CLR,,0.00,WeatherDisplay:10.37,2013-11-14 01:13:00,
2013-11-13 19:18:00,41.8,30.5,30.42,NNE,29,0.0,0.0,64,0.00,CLR,,0.00,WeatherDisplay:10.37,2013-11-14 01:18:00,
2013-11-13 19:23:00,41.4,30.5,30.42,NNE,29,0.0,0.0,65,0.00,CLR,,0.00,WeatherDisplay:10.37,2013-11-14 01:23:00,
2013-11-13 19:28:00,41.1,30.6,30.42,NNE,29,0.0,0.0,66,0.00,CLR,,0.00,WeatherDisplay:10.37,2013-11-14 01:28:00,
2013-11-13 19:33:00,40.8,30.7,30.42,NNE,29,0.0,0.0,67,0.00,CLR,,0.00,WeatherDisplay:10.37,2013-11-14 01:33:00,
2013-11-13 19:38:00,40.5,30.8,30.42,NNE,29,0.0,0.0,68,0.00,CLR,,0.00,WeatherDisplay:10.37,2013-11-14 01:38:00,
2013-11-13 19:43:00,40.2,30.5,30.42,NNE,29,0.0,0.0,68,0.00,CLR,,0.00,WeatherDisplay:10.37,2013-11-14 01:43:00,
2013-11-13 19:48:00,39.8,30.8,30.41,NNE,29,0.0,0.0,70,0.00,CLR,,0.00,WeatherDisplay:10.37,2013-11-14 01:48:00,
2013-11-13 19:53:00,39.5,30.9,30.42,NNE,29,0.0,0.0,71,0.00,CLR,,0.00,WeatherDisplay:10.37,2013-11-14 01:53:00,
2013-11-13 19:58:00,39.2,30.6,30.42,NNE,29,0.0,0.0,71,0.00,CLR,,0.00,WeatherDisplay:10.37,2013-11-14 01:58:00,
2013-11-13 20:03:00,38.9,31.0,30.41,NNE,29,0.0,0.0,73,0.00,CLR,,0.00,WeatherDisplay:10.37,2013-11-14 02:03:00,
2013-11-13 20:08:00,38.6,30.7,30.41,NNE,29,0.0,0.0,73,0.00,CLR,,0.00,WeatherDisplay:10.37,2013-11-14 02:08:00,
2013-11-13 20:13:00,38.3,30.7,30.41,NNE,29,0.0,0.0,74,0.00,CLR,,0.00,WeatherDisplay:10.37,2013-11-14 02:13:00,
2013-11-13 20:18:00,38.1,30.9,30.41,NNE,29,0.0,0.0,75,0.00,CLR,,0.00,WeatherDisplay:10.37,2013-11-14 02:18:00,
2013-11-13 20:23:00,37.9,31.0,30.41,NNE,29,0.0,0.0,76,0.00,CLR,,0.00,WeatherDisplay:10.37,2013-11-14 02:23:00,
2013-11-13 20:28:00,37.7,30.8,30.41,NNE,29,0.0,0.0,76,0.00,CLR,,0.00,WeatherDisplay:10.37,2013-11-14 02:28:00,
2013-11-13 20:33:00,37.5,30.6,30.40,NNE,29,0.0,0.0,76,0.00,CLR,,0.00,WeatherDisplay:10.37,2013-11-14 02:33:00,
2013-11-13 20:38:00,37.4,30.8,30.41,NNE,29,0.0,0.0,77,0.00,CLR,,0.00,WeatherDisplay:10.37,2013-11-14 02:38:00,
2013-11-13 20:43:00,37.2,30.7,30.41,NNE,29,0.0,0.0,77,0.00,CLR,,0.00,WeatherDisplay:10.37,2013-11-14 02:43:00,
2013-11-13 20:48:00,37.1,30.6,30.41,NNE,30,0.0,0.0,77,0.00,CLR,,0.00,WeatherDisplay:10.37,2013-11-14 02:48:00,
2013-11-13 20:53:00,36.9,30.4,30.41,NNE,29,0.0,0.0,77,0.00,CLR,,0.00,WeatherDisplay:10.37,2013-11-14 02:53:00,
2013-11-13 20:58:00,36.8,30.3,30.41,NNE,29,0.0,0.0,77,0.00,CLR,,0.00,WeatherDisplay:10.37,2013-11-14 02:58:00,
2013-11-13 21:03:00,36.6,30.1,30.41,NNE,29,0.0,0.0,77,0.00,CLR,,0.00,WeatherDisplay:10.37,2013-11-14 03:03:00,
2013-11-13 21:08:00,36.4,30.2,30.41,NNE,29,0.0,0.0,78,0.00,CLR,,0.00,WeatherDisplay:10.37,2013-11-14 03:08:00,
2013-11-13 21:13:00,36.3,30.1,30.41,NNE,29,0.0,0.0,78,0.00,CLR,,0.00,WeatherDisplay:10.37,2013-11-14 03:13:00,
2013-11-13 21:18:00,36.1,29.9,30.41,NNE,29,0.0,0.0,78,0.00,CLR,,0.00,WeatherDisplay:10.37,2013-11-14 03:18:00,
2013-11-13 21:23:00,35.9,30.0,30.41,NNE,29,0.0,0.0,79,0.00,CLR,,0.00,WeatherDisplay:10.37,2013-11-14 03:23:00,
2013-11-13 21:28:00,35.7,29.8,30.41,NNE,29,0.0,0.0,79,0.00,CLR,,0.00,WeatherDisplay:10.37,2013-11-14 03:28:00,
2013-11-13 21:33:00,35.5,29.6,30.41,NNE,29,0.0,0.0,79,0.00,CLR,,0.00,WeatherDisplay:10.37,2013-11-14 03:33:00,
2013-11-13 21:38:00,35.3,29.4,30.40,NNE,29,0.0,0.0,79,0.00,CLR,,0.00,WeatherDisplay:10.37,2013-11-14 03:38:00,
2013-11-13 21:43:00,35.1,29.6,30.41,NNE,29,0.0,0.0,80,0.00,CLR,,0.00,WeatherDisplay:10.37,2013-11-14 03:43:00,
2013-11-13 21:48:00,35.0,29.5,30.41,NNE,29,0.0,0.0,80,0.00,CLR,,0.00,WeatherDisplay:10.37,2013-11-14 03:48:00,
2013-11-13 21:53:00,34.8,29.3,30.40,NNE,29,0.0,0.0,80,0.00,CLR,,0.00,WeatherDisplay:10.37,2013-11-14 03:53:00,
2013-11-13 21:58:00,34.7,29.5,30.41,NNE,29,0.0,0.0,81,0.00,CLR,,0.00,WeatherDisplay:10.37,2013-11-14 03:58:00,
2013-11-13 22:03:00,34.6,29.4,30.40,NNE,29,0.0,0.0,81,0.00,CLR,,0.00,WeatherDisplay:10.37,2013-11-14 04:03:00,
2013-11-13 22:08:00,34.4,29.2,30.41,NNE,30,0.0,0.0,81,0.00,CLR,,0.00,WeatherDisplay:10.37,2013-11-14 04:08:00,
2013-11-13 22:13:00,34.3,29.1,30.40,NNE,29,0.0,0.0,81,0.00,CLR,,0.00,WeatherDisplay:10.37,2013-11-14 04:13:00,
2013-11-13 22:18:00,34.2,29.0,30.41,NNE,29,0.0,0.0,81,0.00,CLR,,0.00,WeatherDisplay:10.37,2013-11-14 04:18:00,
2013-11-13 22:23:00,34.0,29.1,30.41,NNE,29,0.0,0.0,82,0.00,CLR,,0.00,WeatherDisplay:10.37,2013-11-14 04:23:00,
2013-11-13 22:28:00,33.8,28.9,30.40,NNE,29,0.0,0.0,82,0.00,CLR,,0.00,WeatherDisplay:10.37,2013-11-14 04:28:00,
2013-11-13 22:33:00,33.7,28.8,30.41,NNE,29,0.0,0.0,82,0.00,CLR,,0.00,WeatherDisplay:10.37,2013-11-14 04:33:00,
2013-11-13 22:38:00,33.6,28.7,30.41,NNE,29,0.0,0.0,82,0.00,CLR,,0.00,WeatherDisplay:10.37,2013-11-14 04:38:00,
2013-11-13 22:43:00,33.5,28.6,30.40,NNE,29,0.0,0.0,82,0.00,CLR,,0.00,WeatherDisplay:10.37,2013-11-14 04:43:00,
2013-11-13 22:48:00,33.4,28.8,30.40,NNE,29,0.0,0.0,83,0.00,CLR,,0.00,WeatherDisplay:10.37,2013-11-14 04:48:00,
2013-11-13 22:53:00,33.3,28.4,30.40,NNE,29,0.0,0.0,82,0.00,CLR,,0.00,WeatherDisplay:10.37,2013-11-14 04:53:00,
2013-11-13 22:58:00,33.2,28.6,30.40,NNE,29,0.0,0.0,83,0.00,CLR,,0.00,WeatherDisplay:10.37,2013-11-14 04:58:00,
2013-11-13 23:01:00,33.1,28.5,30.40,NNE,29,0.0,0.0,83,0.00,CLR,,0.00,WeatherDisplay:10.37,2013-11-14 05:01:00,
2013-11-13 23:02:00,33.1,28.5,30.40,NNE,29,0.0,0.0,83,0.00,CLR,,0.00,WeatherDisplay:10.37,2013-11-14 05:02:00,
2013-11-13 23:07:00,32.9,28.3,30.39,NNE,29,0.0,0.0,83,0.00,CLR,,0.00,WeatherDisplay:10.37,2013-11-14 05:07:00,
2013-11-13 23:12:00,32.9,28.3,30.39,NNE,29,0.0,0.0,83,0.00,CLR,,0.00,WeatherDisplay:10.37,2013-11-14 05:12:00,
2013-11-13 23:17:00,32.7,28.1,30.39,NNE,30,0.0,0.0,83,0.00,CLR,,0.00,WeatherDisplay:10.37,2013-11-14 05:17:00,
2013-11-13 23:22:00,32.6,28.0,30.39,NNE,29,0.0,0.0,83,0.00,CLR,,0.00,WeatherDisplay:10.37,2013-11-14 05:22:00,
2013-11-13 23:27:00,32.5,27.9,30.39,NNE,29,0.0,0.0,83,0.00,CLR,,0.00,WeatherDisplay:10.37,2013-11-14 05:27:00,
2013-11-13 23:32:00,32.4,27.8,30.39,NNE,29,0.0,0.0,83,0.00,CLR,,0.00,WeatherDisplay:10.37,2013-11-14 05:32:00,
2013-11-13 23:37:00,32.3,27.7,30.39,NNE,29,0.0,0.0,83,0.00,CLR,,0.00,WeatherDisplay:10.37,2013-11-14 05:37:00,
2013-11-13 23:42:00,32.2,27.9,30.38,NNE,29,0.0,0.0,84,0.00,CLR,,0.00,WeatherDisplay:10.37,2013-11-14 05:42:00,
2013-11-13 23:47:00,32.1,27.8,30.38,NNE,29,0.0,0.0,84,0.00,CLR,,0.00,WeatherDisplay:10.37,2013-11-14 05:47:00,
2013-11-13 23:52:00,32.1,27.8,30.38,NNE,29,0.0,0.0,84,0.00,CLR,,0.00,WeatherDisplay:10.37,2013-11-14 05:52:00,
2013-11-13 23:57:00,32.0,27.7,30.38,NNE,29,0.0,0.0,84,0.00,CLR,,0.00,WeatherDisplay:10.37,2013-11-14 05:57:00,